createdAt,value
2023-03-08T00:01:53.067Z,2.77
2023-03-08T00:04:38.284Z,3.03
2023-03-08T00:07:23.895Z,3.07
2023-03-08T00:10:10.338Z,3.10
2023-03-08T00:12:55.418Z,3.10
2023-03-08T00:15:40.849Z,3.40
2023-03-08T00:18:26.356Z,3.20
2023-03-08T00:21:14.241Z,3.17
2023-03-08T00:23:59.300Z,3.07
2023-03-08T00:26:44.204Z,2.47
2023-03-08T00:29:31.060Z,2.83
2023-03-08T00:32:17.312Z,2.90
2023-03-08T00:35:02.840Z,2.93
2023-03-08T00:37:49.090Z,2.63
2023-03-08T00:40:35.061Z,2.93
2023-03-08T00:43:23.107Z,2.40
2023-03-08T00:46:08.752Z,2.77
2023-03-08T00:48:54.313Z,2.53
2023-03-08T00:51:39.624Z,3.07
2023-03-08T00:54:24.961Z,2.47
2023-03-08T00:57:10.357Z,2.30
2023-03-08T00:59:55.411Z,2.10
2023-03-08T01:02:41.190Z,2.57
2023-03-08T01:05:26.607Z,2.97
2023-03-08T01:08:12.859Z,2.20
2023-03-08T01:10:59.885Z,2.23
2023-03-08T01:13:45.845Z,2.03
2023-03-08T01:16:33.190Z,2.07
2023-03-08T01:19:18.372Z,2.40
2023-03-08T01:22:03.746Z,1.97
2023-03-08T01:24:49.877Z,2.20
2023-03-08T01:27:35.113Z,2.67
2023-03-08T01:30:20.747Z,2.07
2023-03-08T01:33:05.975Z,2.47
2023-03-08T01:35:51.055Z,1.90
2023-03-08T01:38:37.487Z,2.10
2023-03-08T01:41:26.001Z,2.33
2023-03-08T01:44:16.597Z,1.87
2023-03-08T01:47:01.740Z,1.87
2023-03-08T01:50:11.977Z,1.83
2023-03-08T01:52:58.437Z,2.07
2023-03-08T01:55:44.170Z,1.80
2023-03-08T01:58:30.645Z,1.93
2023-03-08T02:01:16.352Z,1.80
2023-03-08T02:04:02.816Z,1.80
2023-03-08T02:06:48.890Z,1.70
2023-03-08T02:09:39.052Z,1.80
2023-03-08T02:12:24.455Z,1.90
2023-03-08T02:15:12.269Z,1.77
2023-03-08T02:17:58.006Z,1.80
2023-03-08T02:20:43.512Z,1.60
2023-03-08T02:23:29.684Z,1.60
2023-03-08T02:26:16.481Z,1.83
2023-03-08T02:29:01.769Z,1.60
2023-03-08T02:31:46.937Z,1.80
2023-03-08T02:34:32.210Z,2.17
2023-03-08T02:37:17.384Z,1.27
2023-03-08T02:40:06.289Z,1.70
2023-03-08T02:42:53.375Z,1.40
2023-03-08T02:45:38.639Z,1.77
2023-03-08T02:48:23.760Z,1.30
2023-03-08T02:51:08.709Z,1.43
2023-03-08T02:53:54.988Z,1.70
2023-03-08T02:56:40.455Z,1.70
2023-03-08T02:59:27.042Z,1.20
2023-03-08T03:02:14.317Z,1.30
2023-03-08T03:04:59.429Z,1.00
2023-03-08T03:07:47.001Z,1.40
2023-03-08T03:13:22.914Z,1.20
2023-03-08T03:16:09.904Z,1.20
2023-03-08T03:18:56.878Z,1.40
2023-03-08T03:21:42.415Z,1.40
2023-03-08T03:24:27.419Z,1.30
2023-03-08T03:27:15.859Z,1.40
2023-03-08T03:30:01.649Z,1.30
2023-03-08T03:32:47.147Z,1.20
2023-03-08T03:35:38.708Z,1.03
2023-03-08T03:38:24.733Z,1.07
2023-03-08T03:41:14.002Z,1.23
2023-03-08T03:44:00.102Z,0.93
2023-03-08T03:46:45.741Z,1.00
2023-03-08T03:49:34.186Z,1.00
2023-03-08T03:52:19.398Z,0.93
2023-03-08T03:55:13.452Z,0.70
2023-03-08T03:57:59.147Z,1.17
2023-03-08T04:00:44.584Z,1.20
2023-03-08T04:03:39.434Z,1.00
2023-03-08T04:06:30.492Z,1.00
2023-03-08T04:09:18.289Z,1.30
2023-03-08T04:12:09.510Z,0.80
2023-03-08T04:14:56.545Z,1.10
2023-03-08T04:17:45.133Z,1.23
2023-03-08T04:20:30.395Z,1.30
2023-03-08T04:23:18.088Z,1.00
2023-03-08T04:26:06.213Z,0.80
2023-03-08T04:28:52.611Z,1.00
2023-03-08T04:31:38.426Z,1.00
2023-03-08T04:34:28.082Z,0.70
2023-03-08T04:37:13.914Z,0.93
2023-03-08T04:40:05.442Z,0.70
2023-03-08T04:42:53.761Z,0.90
2023-03-08T04:45:44.275Z,1.00
2023-03-08T04:48:32.458Z,0.90
2023-03-08T04:51:18.720Z,0.73
2023-03-08T04:54:04.886Z,0.80
2023-03-08T04:56:52.174Z,0.93
2023-03-08T04:59:43.460Z,1.20
2023-03-08T05:02:29.138Z,0.53
2023-03-08T05:05:14.968Z,0.67
2023-03-08T05:08:04.116Z,1.00
2023-03-08T05:10:55.289Z,0.80
2023-03-08T05:13:40.753Z,0.73
2023-03-08T05:16:28.328Z,0.70
2023-03-08T05:19:14.707Z,0.80
2023-03-08T05:22:07.675Z,0.67
2023-03-08T05:24:57.851Z,0.97
2023-03-08T05:27:44.312Z,0.80
2023-03-08T05:30:29.787Z,0.70
2023-03-08T05:33:17.153Z,0.67
2023-03-08T05:36:02.930Z,0.80
2023-03-08T05:38:53.165Z,0.80
2023-03-08T05:41:39.425Z,0.60
2023-03-08T05:44:25.382Z,0.60
2023-03-08T05:47:10.920Z,0.80
2023-03-08T05:49:56.469Z,0.73
2023-03-08T05:52:42.959Z,0.50
2023-03-08T05:55:32.676Z,0.60
2023-03-08T05:58:18.085Z,0.63
2023-03-08T06:01:10.837Z,0.77
2023-03-08T06:03:57.536Z,0.70
2023-03-08T06:06:46.203Z,0.80
2023-03-08T06:09:31.204Z,0.67
2023-03-08T06:12:17.208Z,0.83
2023-03-08T06:15:05.377Z,0.53
2023-03-08T06:17:54.708Z,0.70
2023-03-08T06:20:42.384Z,0.87
2023-03-08T06:23:29.471Z,0.73
2023-03-08T06:26:15.941Z,0.60
2023-03-08T06:29:02.301Z,0.70
2023-03-08T06:31:49.193Z,0.60
2023-03-08T06:34:35.622Z,0.90
2023-03-08T06:37:20.561Z,0.80
2023-03-08T06:40:09.068Z,0.60
2023-03-08T06:42:54.433Z,0.47
2023-03-08T06:45:40.935Z,0.67
2023-03-08T06:48:26.540Z,0.70
2023-03-08T06:51:12.792Z,0.80
2023-03-08T06:54:02.074Z,0.70
2023-03-08T06:56:48.586Z,0.70
2023-03-08T06:59:33.999Z,1.00
2023-03-08T07:02:18.981Z,0.70
2023-03-08T07:05:04.127Z,0.80
2023-03-08T07:07:49.561Z,0.70
2023-03-08T07:10:35.183Z,1.10
2023-03-08T07:13:22.006Z,0.57
2023-03-08T07:16:09.730Z,0.70
2023-03-08T07:18:54.807Z,0.73
2023-03-08T07:21:40.070Z,0.80
2023-03-08T07:24:25.305Z,0.90
2023-03-08T07:27:10.484Z,0.80
2023-03-08T07:29:56.337Z,0.90
2023-03-08T07:32:42.872Z,0.90
2023-03-08T07:35:27.957Z,0.70
2023-03-08T07:38:13.688Z,0.80
2023-03-08T07:40:58.956Z,0.80
2023-03-08T07:43:44.165Z,0.90
2023-03-08T07:46:39.361Z,0.83
2023-03-08T07:49:24.882Z,0.80
2023-03-08T07:52:10.068Z,0.80
2023-03-08T07:54:55.282Z,1.10
2023-03-08T07:57:40.705Z,1.03
2023-03-08T08:00:26.342Z,1.40
2023-03-08T08:03:11.372Z,1.60
2023-03-08T08:05:56.736Z,1.80
2023-03-08T08:08:42.517Z,1.50
2023-03-08T08:11:28.144Z,1.57
2023-03-08T08:14:13.111Z,1.70
2023-03-08T08:16:58.423Z,1.63
2023-03-08T08:19:43.260Z,1.93
2023-03-08T08:22:28.460Z,1.70
2023-03-08T08:25:13.442Z,1.80
2023-03-08T08:27:58.729Z,2.00
2023-03-08T08:30:44.167Z,2.13
2023-03-08T08:33:29.601Z,2.10
2023-03-08T08:36:17.580Z,2.20
2023-03-08T08:39:02.885Z,2.50
2023-03-08T08:41:51.154Z,2.50
2023-03-08T08:44:36.369Z,2.70
2023-03-08T08:47:21.449Z,2.40
2023-03-08T08:50:06.606Z,2.60
2023-03-08T08:52:51.729Z,2.50
2023-03-08T08:55:37.841Z,2.30
2023-03-08T08:58:25.631Z,2.77
2023-03-08T09:01:18.703Z,2.60
2023-03-08T09:04:03.775Z,2.40
2023-03-08T09:06:49.449Z,2.47
2023-03-08T09:09:34.622Z,2.57
2023-03-08T09:12:21.140Z,2.70
2023-03-08T09:15:07.070Z,2.87
2023-03-08T09:17:52.270Z,2.63
2023-03-08T09:20:38.560Z,2.33
2023-03-08T09:23:23.758Z,2.83
2023-03-08T09:26:09.419Z,2.73
2023-03-08T09:28:54.638Z,2.53
2023-03-08T09:31:40.426Z,3.10
2023-03-08T09:34:26.458Z,2.93
2023-03-08T09:37:12.222Z,2.80
2023-03-08T09:39:58.056Z,2.63
2023-03-08T09:42:44.297Z,2.63
2023-03-08T09:45:29.536Z,2.73
2023-03-08T09:48:24.491Z,3.03
2023-03-08T09:51:13.837Z,2.60
2023-03-08T09:54:03.707Z,2.70
2023-03-08T09:56:51.672Z,2.73
2023-03-08T09:59:51.409Z,2.30
2023-03-08T10:02:41.354Z,2.83
2023-03-08T10:05:35.475Z,3.23
2023-03-08T10:08:31.214Z,3.00
2023-03-08T10:11:40.426Z,3.10
2023-03-08T10:14:30.383Z,2.80
2023-03-08T10:17:20.885Z,3.40
2023-03-08T10:20:17.361Z,3.53
2023-03-08T10:23:14.625Z,3.00
2023-03-08T10:26:02.741Z,3.10
2023-03-08T10:28:47.975Z,3.33
2023-03-08T10:31:33.763Z,3.53
2023-03-08T10:34:22.099Z,3.63
2023-03-08T10:37:07.749Z,3.80
2023-03-08T10:39:55.093Z,4.00
2023-03-08T10:42:53.277Z,3.97
2023-03-08T10:45:38.416Z,4.20
2023-03-08T10:48:23.583Z,4.30
2023-03-08T10:51:26.610Z,4.23
2023-03-08T10:54:15.363Z,4.37
2023-03-08T10:57:02.123Z,4.53
2023-03-08T10:59:49.781Z,4.47
2023-03-08T11:02:35.017Z,4.03
2023-03-08T11:05:22.047Z,4.77
2023-03-08T11:08:18.866Z,4.47
2023-03-08T11:11:12.896Z,5.40
2023-03-08T11:13:58.149Z,4.73
2023-03-08T11:17:01.972Z,4.90
2023-03-08T11:20:16.465Z,5.47
2023-03-08T11:23:12.868Z,5.00
2023-03-08T11:26:18.548Z,4.53
2023-03-08T11:29:21.910Z,4.67
2023-03-08T11:32:41.165Z,4.90
2023-03-08T11:35:32.650Z,4.30
2023-03-08T11:38:19.977Z,4.80
2023-03-08T11:41:23.856Z,4.47
2023-03-08T11:44:14.072Z,5.10
2023-03-08T11:47:38.538Z,5.13
2023-03-08T11:50:32.154Z,5.27
2023-03-08T11:53:44.063Z,4.90
2023-03-08T11:56:39.204Z,5.03
2023-03-08T11:59:39.316Z,5.23
2023-03-08T12:02:29.873Z,4.73
2023-03-08T12:05:29.537Z,4.60
2023-03-08T12:08:39.515Z,4.90
2023-03-08T12:11:42.677Z,4.80
2023-03-08T12:14:32.123Z,5.43
2023-03-08T12:17:30.369Z,4.53
2023-03-08T12:20:20.055Z,5.07
2023-03-08T12:23:30.237Z,5.43
2023-03-08T12:26:31.678Z,5.33
2023-03-08T12:29:24.893Z,4.73
2023-03-08T12:32:11.669Z,4.80
2023-03-08T12:35:04.857Z,4.40
2023-03-08T12:37:56.487Z,4.50
2023-03-08T12:40:50.488Z,4.57
2023-03-08T12:43:35.767Z,4.73
2023-03-08T12:46:21.114Z,5.30
2023-03-08T12:49:20.146Z,4.87
2023-03-08T12:52:23.288Z,4.73
2023-03-08T12:55:20.962Z,4.67
2023-03-08T12:58:16.097Z,4.43
2023-03-08T13:01:05.289Z,4.50
2023-03-08T13:03:50.858Z,4.90
2023-03-08T13:07:10.326Z,4.47
2023-03-08T13:10:02.338Z,4.30
2023-03-08T13:13:04.289Z,4.47
2023-03-08T13:15:51.121Z,4.50
2023-03-08T13:18:37.088Z,4.80
2023-03-08T13:21:36.328Z,4.13
2023-03-08T13:24:43.450Z,3.93
2023-03-08T13:27:49.235Z,4.87
2023-03-08T13:30:43.929Z,4.60
2023-03-08T13:33:30.346Z,3.90
2023-03-08T13:36:24.522Z,4.00
2023-03-08T13:39:21.979Z,4.37
2023-03-08T13:42:11.687Z,4.17
2023-03-08T13:45:15.839Z,4.57
2023-03-08T13:48:06.968Z,4.33
2023-03-08T13:50:52.921Z,3.60
2023-03-08T13:53:40.253Z,4.53
2023-03-08T13:56:27.754Z,3.87
2023-03-08T13:59:20.593Z,4.20
2023-03-08T14:02:19.865Z,3.67
2023-03-08T14:05:22.540Z,4.00
2023-03-08T14:08:19.166Z,4.03
2023-03-08T14:11:08.148Z,4.47
2023-03-08T14:13:55.606Z,4.50
2023-03-08T14:16:43.972Z,3.70
2023-03-08T14:19:53.739Z,4.33
2023-03-08T14:22:40.485Z,3.87
2023-03-08T14:25:25.531Z,3.57
2023-03-08T14:28:39.112Z,3.97
2023-03-08T14:31:28.570Z,3.47
2023-03-08T14:34:20.812Z,3.73
2023-03-08T14:37:23.357Z,3.90
2023-03-08T14:40:14.368Z,3.23
2023-03-08T14:43:04.544Z,3.93
2023-03-08T14:46:03.266Z,3.50
2023-03-08T14:49:01.045Z,3.50
2023-03-08T14:51:46.354Z,3.50
2023-03-08T14:54:32.897Z,3.70
2023-03-08T14:57:21.454Z,3.60
2023-03-08T15:00:14.312Z,3.90
2023-03-08T15:03:00.808Z,3.57
2023-03-08T15:05:46.585Z,3.93
2023-03-08T15:08:31.478Z,3.20
2023-03-08T15:11:16.562Z,3.67
2023-03-08T15:14:02.015Z,3.70
2023-03-08T15:16:47.361Z,3.40
2023-03-08T15:19:32.718Z,3.37
2023-03-08T15:22:18.057Z,3.20
2023-03-08T15:25:02.971Z,3.30
2023-03-08T15:27:49.738Z,3.43
2023-03-08T15:30:35.065Z,3.73
2023-03-08T15:33:21.127Z,3.40
2023-03-08T15:36:08.925Z,3.13
2023-03-08T15:38:54.153Z,3.20
2023-03-08T15:41:39.702Z,2.80
2023-03-08T15:44:24.926Z,3.30
2023-03-08T15:47:09.926Z,2.93
2023-03-08T15:49:55.156Z,3.00
2023-03-08T15:52:40.521Z,3.53
2023-03-08T15:55:27.898Z,3.00
2023-03-08T15:58:13.048Z,3.50
2023-03-08T16:00:58.253Z,3.00
2023-03-08T16:03:43.602Z,3.60
2023-03-08T16:06:28.862Z,4.00
2023-03-08T16:09:14.236Z,3.23
2023-03-08T16:11:59.142Z,4.33
2023-03-08T16:14:49.915Z,3.70
2023-03-08T16:17:35.739Z,3.63
2023-03-08T16:20:23.347Z,3.80
2023-03-08T16:23:09.076Z,4.70
2023-03-08T16:26:14.741Z,4.87
2023-03-08T16:29:00.731Z,4.97
2023-03-08T16:31:45.914Z,10.67
2023-03-08T16:34:31.215Z,25.20
2023-03-08T16:37:27.045Z,66.80
2023-03-08T16:40:14.240Z,148.47
2023-03-08T16:42:59.257Z,92.47
2023-03-08T16:45:59.185Z,78.03
2023-03-08T16:48:44.651Z,62.17
2023-03-08T16:51:31.143Z,53.60
2023-03-08T16:54:16.537Z,44.63
2023-03-08T16:57:17.872Z,36.67
2023-03-08T17:00:06.446Z,31.63
2023-03-08T17:02:51.382Z,27.93
2023-03-08T17:05:41.790Z,25.60
2023-03-08T17:08:26.658Z,22.57
2023-03-08T17:11:22.971Z,20.73
2023-03-08T17:14:11.182Z,19.27
2023-03-08T17:16:56.137Z,16.30
2023-03-08T17:19:41.840Z,15.53
2023-03-08T17:22:26.730Z,13.23
2023-03-08T17:25:11.824Z,12.97
2023-03-08T17:27:57.463Z,12.13
2023-03-08T17:30:42.793Z,11.50
2023-03-08T17:33:28.240Z,10.40
2023-03-08T17:36:14.427Z,10.93
2023-03-08T17:38:59.901Z,10.77
2023-03-08T17:41:44.891Z,10.57
2023-03-08T17:44:30.360Z,9.70
2023-03-08T17:47:15.591Z,10.70
2023-03-08T17:50:01.064Z,11.43
2023-03-08T17:52:46.308Z,13.77
2023-03-08T17:55:32.534Z,15.53
2023-03-08T17:58:21.266Z,14.57
2023-03-08T18:01:11.995Z,13.03
2023-03-08T18:03:57.966Z,13.63
2023-03-08T18:06:43.689Z,13.73
2023-03-08T18:09:31.350Z,14.50
2023-03-08T18:12:16.555Z,13.03
2023-03-08T18:15:01.856Z,14.27
2023-03-08T18:17:47.673Z,15.33
2023-03-08T18:20:32.942Z,14.83
2023-03-08T18:23:18.387Z,13.97
2023-03-08T18:26:03.620Z,13.77
2023-03-08T18:28:49.543Z,14.67
2023-03-08T18:31:37.127Z,16.00
2023-03-08T18:34:22.701Z,14.93
2023-03-08T18:37:07.613Z,16.53
2023-03-08T18:39:54.446Z,14.77
2023-03-08T18:42:40.371Z,17.57
2023-03-08T18:45:25.971Z,17.27
2023-03-08T18:48:11.389Z,16.63
2023-03-08T18:51:00.841Z,15.67
2023-03-08T18:53:46.409Z,15.80
2023-03-08T18:56:31.956Z,15.47
2023-03-08T18:59:17.100Z,14.93
2023-03-08T19:02:02.886Z,14.43
2023-03-08T19:04:48.395Z,14.97
2023-03-08T19:07:33.911Z,14.43
2023-03-08T19:10:19.197Z,15.07
2023-03-08T19:13:04.602Z,13.83
2023-03-08T19:15:49.787Z,15.07
2023-03-08T19:18:34.976Z,13.77
2023-03-08T19:21:23.188Z,13.97
2023-03-08T19:24:09.113Z,13.20
2023-03-08T19:26:58.398Z,13.23
2023-03-08T19:29:43.739Z,12.00
2023-03-08T19:32:29.165Z,13.03
2023-03-08T19:35:14.349Z,12.57
2023-03-08T19:37:59.395Z,11.47
2023-03-08T19:40:45.519Z,11.97
2023-03-08T19:43:30.753Z,12.07
2023-03-08T19:46:17.944Z,11.87
2023-03-08T19:49:05.033Z,11.70
2023-03-08T19:51:52.345Z,10.83
2023-03-08T19:54:38.083Z,11.23
2023-03-08T19:57:23.187Z,11.37
2023-03-08T20:00:08.828Z,10.80
2023-03-08T20:03:02.167Z,10.07
2023-03-08T20:05:47.713Z,10.80
2023-03-08T20:08:34.007Z,10.03
2023-03-08T20:11:20.160Z,10.60
2023-03-08T20:14:05.200Z,10.23
2023-03-08T20:16:51.269Z,9.50
2023-03-08T20:19:36.667Z,9.50
2023-03-08T20:22:21.850Z,9.87
2023-03-08T20:25:07.639Z,9.43
2023-03-08T20:27:52.887Z,9.43
2023-03-08T20:30:39.324Z,9.80
2023-03-08T20:33:25.106Z,8.57
2023-03-08T20:36:10.410Z,8.17
2023-03-08T20:38:57.795Z,8.50
2023-03-08T20:41:42.974Z,8.70
2023-03-08T20:44:28.008Z,8.37
2023-03-08T20:47:13.705Z,8.10
2023-03-08T20:49:58.961Z,7.67
2023-03-08T20:52:44.510Z,7.80
2023-03-08T20:55:29.641Z,8.03
2023-03-08T20:58:14.829Z,7.70
2023-03-08T21:01:00.467Z,7.63
2023-03-08T21:03:46.912Z,7.53
2023-03-08T21:06:32.399Z,6.70
2023-03-08T21:09:17.902Z,6.77
2023-03-08T21:12:04.349Z,6.43
2023-03-08T21:14:52.923Z,6.90
2023-03-08T21:17:38.577Z,6.87
2023-03-08T21:20:25.065Z,7.07
2023-03-08T21:23:10.181Z,5.83
2023-03-08T21:25:59.561Z,6.63
2023-03-08T21:28:44.523Z,6.67
2023-03-08T21:31:30.863Z,6.13
2023-03-08T21:34:17.219Z,5.17
2023-03-08T21:37:02.443Z,5.90
2023-03-08T21:39:47.773Z,6.00
2023-03-08T21:42:33.016Z,5.73
2023-03-08T21:45:18.005Z,5.87
2023-03-08T21:48:03.733Z,6.07
2023-03-08T21:50:49.162Z,5.80
2023-03-08T21:53:34.722Z,5.60
2023-03-08T21:56:20.016Z,5.00
2023-03-08T21:59:06.049Z,4.70
2023-03-08T22:01:54.006Z,5.00
2023-03-08T22:04:39.413Z,4.53
2023-03-08T22:07:24.422Z,4.87
2023-03-08T22:10:11.801Z,4.77
2023-03-08T22:12:57.465Z,4.83
2023-03-08T22:15:42.845Z,4.87
2023-03-08T22:18:28.145Z,4.60
2023-03-08T22:21:13.938Z,5.20
2023-03-08T22:24:01.650Z,4.07
2023-03-08T22:26:47.933Z,4.63
2023-03-08T22:29:33.793Z,4.47
2023-03-08T22:32:20.107Z,4.17
2023-03-08T22:35:06.340Z,4.63
2023-03-08T22:37:51.531Z,3.93
2023-03-08T22:40:40.477Z,3.95
2023-03-08T22:43:26.559Z,3.70
2023-03-08T22:46:20.425Z,4.30
2023-03-08T22:49:07.160Z,4.10
2023-03-08T22:51:54.821Z,4.23
2023-03-08T22:54:41.383Z,4.03
2023-03-08T22:57:26.727Z,3.70
2023-03-08T23:00:14.456Z,3.93
2023-03-08T23:02:59.925Z,4.07
2023-03-08T23:05:45.511Z,3.27
2023-03-08T23:08:30.667Z,3.70
2023-03-08T23:11:15.597Z,3.83
2023-03-08T23:14:00.812Z,3.40
2023-03-08T23:16:46.568Z,3.40
2023-03-08T23:19:31.967Z,3.47
2023-03-08T23:22:18.315Z,3.20
2023-03-08T23:25:04.848Z,3.20
2023-03-08T23:27:49.925Z,3.27
2023-03-08T23:30:35.039Z,3.40
2023-03-08T23:33:20.015Z,3.40
2023-03-08T23:36:05.910Z,3.13
2023-03-08T23:38:51.571Z,3.23
2023-03-08T23:41:36.401Z,2.83
2023-03-08T23:44:21.427Z,3.43
2023-03-08T23:47:06.563Z,3.40
2023-03-08T23:49:51.763Z,3.00
2023-03-08T23:52:36.842Z,3.40
2023-03-08T23:55:21.840Z,2.60
2023-03-08T23:58:08.271Z,2.87
